createdAt,value
2022-12-10T00:00:01.381Z,88.82
2022-12-10T00:01:01.361Z,88.92
2022-12-10T00:02:01.331Z,89.03
2022-12-10T00:03:01.360Z,89.23
2022-12-10T00:04:01.312Z,89.13
2022-12-10T00:05:01.308Z,89.13
2022-12-10T00:06:01.301Z,89.13
2022-12-10T00:07:01.269Z,89.13
2022-12-10T00:08:01.306Z,89.34
2022-12-10T00:09:01.240Z,89.45
2022-12-10T00:10:01.938Z,89.51
2022-12-10T00:11:01.240Z,89.20
2022-12-10T00:12:01.212Z,88.71
2022-12-10T00:13:01.192Z,88.29
2022-12-10T00:14:01.181Z,88.09
2022-12-10T00:15:01.169Z,87.77
2022-12-10T00:16:01.229Z,87.98
2022-12-10T00:17:01.174Z,88.19
2022-12-10T00:18:01.131Z,88.19
2022-12-10T00:19:01.111Z,88.40
2022-12-10T00:20:01.111Z,88.50
2022-12-10T00:21:01.109Z,88.71
2022-12-10T00:22:01.081Z,88.86
2022-12-10T00:23:01.081Z,89.13
2022-12-10T00:24:01.050Z,89.45
2022-12-10T00:25:01.060Z,89.65
2022-12-10T00:26:01.041Z,89.55
2022-12-10T00:27:01.032Z,89.45
2022-12-10T00:28:01.000Z,89.34
2022-12-10T00:29:00.990Z,89.13
2022-12-10T00:30:00.982Z,89.13
2022-12-10T00:31:01.014Z,89.03
2022-12-10T00:32:00.949Z,89.23
2022-12-10T00:33:00.940Z,89.34
2022-12-10T00:34:00.919Z,89.34
2022-12-10T00:35:00.905Z,89.45
2022-12-10T00:36:00.919Z,89.45
2022-12-10T00:37:00.878Z,89.34
2022-12-10T00:38:00.878Z,89.34
2022-12-10T00:39:00.859Z,89.55
2022-12-10T00:40:00.849Z,89.65
2022-12-10T00:41:00.845Z,89.51
2022-12-10T00:42:00.846Z,89.40
2022-12-10T00:43:00.800Z,89.09
2022-12-10T00:44:00.798Z,88.78
2022-12-10T00:45:00.779Z,88.36
2022-12-10T00:46:00.778Z,88.26
2022-12-10T00:47:00.831Z,88.46
2022-12-10T00:48:00.792Z,88.26
2022-12-10T00:49:00.727Z,88.21
2022-12-10T00:50:00.724Z,88.04
2022-12-10T00:51:00.707Z,88.01
2022-12-10T00:52:00.703Z,87.84
2022-12-10T00:53:00.676Z,87.63
2022-12-10T00:54:00.697Z,87.80
2022-12-10T00:55:00.647Z,88.11
2022-12-10T00:56:00.647Z,88.21
2022-12-10T00:57:00.627Z,87.69
2022-12-10T00:58:00.606Z,87.17
2022-12-10T00:59:00.688Z,86.96
2022-12-10T01:00:00.586Z,86.90
2022-12-10T01:01:00.634Z,86.79
2022-12-10T01:02:00.580Z,87.00
2022-12-10T01:03:00.555Z,87.21
2022-12-10T01:04:00.527Z,87.42
2022-12-10T01:05:00.519Z,87.63
2022-12-10T01:06:00.538Z,87.73
2022-12-10T01:07:00.506Z,87.73
2022-12-10T01:08:00.515Z,87.63
2022-12-10T01:09:00.467Z,87.63
2022-12-10T01:10:00.457Z,87.63
2022-12-10T01:11:00.477Z,87.63
2022-12-10T01:12:00.436Z,87.42
2022-12-10T01:13:00.426Z,87.31
2022-12-10T01:14:00.414Z,87.52
2022-12-10T01:15:00.397Z,87.63
2022-12-10T01:16:00.438Z,87.63
2022-12-10T01:17:00.366Z,87.63
2022-12-10T01:18:00.356Z,87.10
2022-12-10T01:19:00.347Z,87.10
2022-12-10T01:20:00.326Z,87.21
2022-12-10T01:21:00.347Z,86.90
2022-12-10T01:22:00.304Z,86.83
2022-12-10T01:23:00.286Z,87.21
2022-12-10T01:24:00.275Z,87.25
2022-12-10T01:25:00.266Z,86.93
2022-12-10T01:26:00.265Z,86.52
2022-12-10T01:27:00.236Z,86.62
2022-12-10T01:28:00.228Z,86.83
2022-12-10T01:29:00.224Z,86.93
2022-12-10T01:30:00.211Z,87.04
2022-12-10T01:31:00.205Z,87.15
2022-12-10T01:32:00.309Z,87.15
2022-12-10T01:33:00.174Z,86.90
2022-12-10T01:34:00.161Z,86.52
2022-12-10T01:35:00.133Z,86.41
2022-12-10T01:36:00.133Z,86.10
2022-12-10T01:37:00.103Z,85.74
2022-12-10T01:38:00.094Z,85.85
2022-12-10T01:39:00.085Z,86.16
2022-12-10T01:40:00.077Z,86.58
2022-12-10T01:41:00.073Z,86.90
2022-12-10T01:42:00.048Z,86.69
2022-12-10T01:43:00.559Z,86.06
2022-12-10T01:44:00.016Z,86.06
2022-12-10T01:45:00.004Z,86.06
2022-12-10T01:46:00.037Z,86.16
2022-12-10T01:46:59.992Z,86.37
2022-12-10T01:48:04.880Z,86.37
2022-12-10T01:49:00.964Z,86.58
2022-12-10T01:49:59.933Z,86.90
2022-12-10T01:51:00.002Z,87.00
2022-12-10T01:51:59.918Z,86.96
2022-12-10T01:52:59.907Z,87.17
2022-12-10T01:53:59.892Z,86.96
2022-12-10T01:54:59.880Z,86.85
2022-12-10T01:55:59.878Z,86.75
2022-12-10T01:56:59.862Z,86.65
2022-12-10T01:57:59.843Z,86.54
2022-12-10T01:58:59.824Z,85.91
2022-12-10T01:59:59.815Z,85.91
2022-12-10T02:00:59.872Z,85.64
2022-12-10T02:01:59.813Z,85.64
2022-12-10T02:02:59.773Z,85.53
2022-12-10T02:03:59.756Z,85.64
2022-12-10T02:04:59.762Z,86.06
2022-12-10T02:05:59.733Z,86.58
2022-12-10T02:06:59.733Z,86.37
2022-12-10T02:07:59.785Z,86.37
2022-12-10T02:08:59.711Z,86.47
2022-12-10T02:09:59.682Z,86.37
2022-12-10T02:10:59.682Z,86.16
2022-12-10T02:11:59.680Z,86.06
2022-12-10T02:12:59.663Z,85.96
2022-12-10T02:13:59.635Z,86.06
2022-12-10T02:14:59.631Z,86.16
2022-12-10T02:15:59.611Z,86.37
2022-12-10T02:16:59.613Z,86.37
2022-12-10T02:17:59.593Z,86.16
2022-12-10T02:18:59.582Z,86.06
2022-12-10T02:19:59.551Z,85.96
2022-12-10T02:20:59.552Z,85.85
2022-12-10T02:21:59.552Z,85.96
2022-12-10T02:22:59.531Z,86.37
2022-12-10T02:23:59.503Z,86.79
2022-12-10T02:24:59.499Z,86.79
2022-12-10T02:25:59.480Z,86.47
2022-12-10T02:26:59.489Z,86.37
2022-12-10T02:27:59.460Z,86.16
2022-12-10T02:28:59.453Z,86.16
2022-12-10T02:29:59.429Z,86.06
2022-12-10T02:30:59.424Z,85.96
2022-12-10T02:31:59.479Z,85.85
2022-12-10T02:32:59.399Z,86.06
2022-12-10T02:33:59.369Z,86.27
2022-12-10T02:35:00.817Z,86.47
2022-12-10T02:35:59.347Z,86.75
2022-12-10T02:36:59.360Z,86.85
2022-12-10T02:37:59.330Z,86.65
2022-12-10T02:38:59.333Z,86.54
2022-12-10T02:39:59.300Z,86.54
2022-12-10T02:40:59.300Z,86.13
2022-12-10T02:41:59.292Z,86.02
2022-12-10T02:42:59.269Z,86.13
2022-12-10T02:43:59.250Z,85.91
2022-12-10T02:44:59.240Z,86.02
2022-12-10T02:45:59.289Z,86.23
2022-12-10T02:46:59.238Z,86.23
2022-12-10T02:47:59.203Z,86.13
2022-12-10T02:48:59.189Z,85.81
2022-12-10T02:49:59.189Z,85.96
2022-12-10T02:50:59.180Z,86.16
2022-12-10T02:51:59.178Z,86.47
2022-12-10T02:52:59.138Z,86.37
2022-12-10T02:53:59.120Z,86.27
2022-12-10T02:54:59.123Z,86.69
2022-12-10T02:55:59.090Z,86.90
2022-12-10T02:56:59.098Z,86.90
2022-12-10T02:57:59.089Z,86.90
2022-12-10T02:58:59.060Z,86.93
2022-12-10T02:59:59.040Z,87.10
2022-12-10T03:00:59.083Z,87.42
2022-12-10T03:01:59.027Z,87.73
2022-12-10T03:02:59.044Z,87.63
2022-12-10T03:03:59.008Z,86.69
2022-12-10T03:04:58.978Z,86.06
2022-12-10T03:05:58.967Z,85.78
2022-12-10T03:06:58.959Z,86.10
2022-12-10T03:07:59.004Z,86.41
2022-12-10T03:08:58.943Z,86.72
2022-12-10T03:09:58.926Z,87.04
2022-12-10T03:10:58.919Z,87.25
2022-12-10T03:11:58.909Z,87.25
2022-12-10T03:12:58.878Z,87.25
2022-12-10T03:13:58.884Z,87.25
2022-12-10T03:14:58.858Z,87.25
2022-12-10T03:15:58.847Z,87.25
2022-12-10T03:16:58.892Z,87.15
2022-12-10T03:17:58.817Z,87.15
2022-12-10T03:18:58.851Z,87.25
2022-12-10T03:19:58.798Z,87.35
2022-12-10T03:20:58.788Z,87.46
2022-12-10T03:21:58.768Z,87.66
2022-12-10T03:22:58.757Z,87.88
2022-12-10T03:23:58.766Z,87.88
2022-12-10T03:24:58.727Z,87.77
2022-12-10T03:25:58.715Z,87.77
2022-12-10T03:26:58.707Z,87.66
2022-12-10T03:27:58.687Z,87.73
2022-12-10T03:28:58.696Z,87.84
2022-12-10T03:29:58.647Z,87.84
2022-12-10T03:30:58.722Z,87.63
2022-12-10T03:31:58.637Z,87.52
2022-12-10T03:32:58.616Z,87.42
2022-12-10T03:33:58.628Z,87.42
2022-12-10T03:34:58.596Z,87.42
2022-12-10T03:35:58.611Z,87.42
2022-12-10T03:36:58.577Z,87.42
2022-12-10T03:37:58.556Z,87.48
2022-12-10T03:38:58.577Z,87.38
2022-12-10T03:39:58.536Z,87.17
2022-12-10T03:40:58.528Z,87.27
2022-12-10T03:41:58.505Z,87.48
2022-12-10T03:42:58.503Z,87.59
2022-12-10T03:43:58.486Z,87.48
2022-12-10T03:44:58.495Z,87.38
2022-12-10T03:45:58.476Z,87.38
2022-12-10T03:46:58.445Z,87.23
2022-12-10T03:47:58.474Z,87.02
2022-12-10T03:48:58.415Z,86.54
2022-12-10T03:49:58.425Z,86.02
2022-12-10T03:50:58.396Z,85.91
2022-12-10T03:51:58.379Z,85.91
2022-12-10T03:52:58.364Z,85.91
2022-12-10T03:53:58.355Z,85.81
2022-12-10T03:54:58.385Z,85.85
2022-12-10T03:55:58.326Z,85.96
2022-12-10T03:56:58.323Z,86.06
2022-12-10T03:57:58.304Z,86.37
2022-12-10T03:58:58.303Z,86.58
2022-12-10T03:59:58.293Z,86.47
2022-12-10T04:00:58.275Z,86.58
2022-12-10T04:01:58.254Z,86.58
2022-12-10T04:02:58.248Z,86.69
2022-12-10T04:03:58.265Z,87.00
2022-12-10T04:04:58.241Z,87.10
2022-12-10T04:05:58.206Z,86.69
2022-12-10T04:06:58.185Z,86.44
2022-12-10T04:07:58.192Z,85.91
2022-12-10T04:08:58.985Z,85.08
2022-12-10T04:09:58.163Z,84.91
2022-12-10T04:10:58.145Z,85.43
2022-12-10T04:11:58.124Z,85.43
2022-12-10T04:12:58.124Z,85.22
2022-12-10T04:13:58.092Z,84.80
2022-12-10T04:14:58.124Z,84.59
2022-12-10T04:15:58.073Z,84.80
2022-12-10T04:16:58.123Z,85.22
2022-12-10T04:17:58.044Z,85.43
2022-12-10T04:19:01.058Z,85.53
2022-12-10T04:19:58.023Z,85.43
2022-12-10T04:20:58.031Z,85.53
2022-12-10T04:21:57.995Z,85.74
2022-12-10T04:22:57.990Z,86.13
2022-12-10T04:23:57.972Z,86.44
2022-12-10T04:24:57.964Z,86.54
2022-12-10T04:25:57.952Z,86.33
2022-12-10T04:26:57.946Z,85.91
2022-12-10T04:27:57.914Z,85.71
2022-12-10T04:28:57.912Z,85.39
2022-12-10T04:29:57.895Z,84.97
2022-12-10T04:30:57.973Z,84.87
2022-12-10T04:31:57.873Z,84.87
2022-12-10T04:32:57.860Z,84.97
2022-12-10T04:33:57.842Z,84.87
2022-12-10T04:34:57.843Z,84.91
2022-12-10T04:35:57.850Z,85.01
2022-12-10T04:36:57.813Z,85.22
2022-12-10T04:37:57.794Z,85.22
2022-12-10T04:38:57.781Z,84.91
2022-12-10T04:39:57.762Z,84.70
2022-12-10T04:40:57.781Z,84.42
2022-12-10T04:41:57.772Z,84.63
2022-12-10T04:42:57.742Z,84.53
2022-12-10T04:43:57.718Z,84.63
2022-12-10T04:44:57.718Z,84.74
2022-12-10T04:45:57.738Z,84.84
2022-12-10T04:46:57.721Z,84.95
2022-12-10T04:47:57.664Z,85.05
2022-12-10T04:48:57.660Z,85.05
2022-12-10T04:49:57.631Z,84.95
2022-12-10T04:50:57.651Z,84.95
2022-12-10T04:51:57.630Z,84.95
2022-12-10T04:52:57.600Z,84.95
2022-12-10T04:53:57.581Z,85.05
2022-12-10T04:54:57.579Z,84.74
2022-12-10T04:55:57.580Z,84.53
2022-12-10T04:56:57.569Z,84.74
2022-12-10T04:57:57.537Z,85.05
2022-12-10T04:58:57.530Z,85.26
2022-12-10T04:59:57.507Z,85.26
2022-12-10T05:00:57.518Z,85.26
2022-12-10T05:01:57.479Z,85.26
2022-12-10T05:03:05.024Z,85.16
2022-12-10T05:03:57.441Z,85.05
2022-12-10T05:04:57.414Z,84.84
2022-12-10T05:05:57.413Z,84.95
2022-12-10T05:06:57.393Z,85.05
2022-12-10T05:07:57.407Z,85.19
2022-12-10T05:08:57.362Z,85.30
2022-12-10T05:09:57.344Z,85.41
2022-12-10T05:10:57.352Z,85.41
2022-12-10T05:11:57.323Z,85.41
2022-12-10T05:12:57.302Z,85.41
2022-12-10T05:13:57.292Z,85.51
2022-12-10T05:14:57.281Z,85.61
2022-12-10T05:15:57.386Z,85.61
2022-12-10T05:16:57.252Z,85.65
2022-12-10T05:17:57.251Z,85.65
2022-12-10T05:18:57.234Z,85.75
2022-12-10T05:19:57.222Z,85.75
2022-12-10T05:20:57.219Z,85.86
2022-12-10T05:21:57.194Z,85.86
2022-12-10T05:22:57.183Z,85.86
2022-12-10T05:23:57.177Z,85.97
2022-12-10T05:24:57.162Z,86.07
2022-12-10T05:25:57.165Z,85.97
2022-12-10T05:26:57.124Z,85.86
2022-12-10T05:27:57.111Z,86.11
2022-12-10T05:28:57.101Z,86.32
2022-12-10T05:29:57.090Z,86.43
2022-12-10T05:30:57.116Z,86.53
2022-12-10T05:31:57.078Z,86.78
2022-12-10T05:32:57.040Z,86.99
2022-12-10T05:33:57.040Z,87.05
2022-12-10T05:34:57.019Z,87.05
2022-12-10T05:35:57.017Z,86.95
2022-12-10T05:36:57.010Z,86.95
2022-12-10T05:37:56.990Z,86.95
2022-12-10T05:38:56.973Z,86.95
2022-12-10T05:39:56.970Z,87.05
2022-12-10T05:40:57.357Z,87.05
2022-12-10T05:41:56.960Z,87.09
2022-12-10T05:42:56.921Z,87.09
2022-12-10T05:43:56.911Z,87.09
2022-12-10T05:44:56.895Z,87.20
2022-12-10T05:45:56.902Z,87.30
2022-12-10T05:46:56.888Z,87.30
2022-12-10T05:47:56.909Z,87.20
2022-12-10T05:48:56.850Z,87.30
2022-12-10T05:49:56.831Z,87.41
2022-12-10T05:50:56.818Z,87.41
2022-12-10T05:51:56.829Z,87.45
2022-12-10T05:52:56.790Z,87.66
2022-12-10T05:53:56.780Z,87.76
2022-12-10T05:54:56.769Z,87.97
2022-12-10T05:55:56.759Z,87.87
2022-12-10T05:56:56.750Z,88.07
2022-12-10T05:57:56.730Z,87.87
2022-12-10T05:58:56.710Z,87.76
2022-12-10T05:59:56.710Z,87.97
2022-12-10T06:00:56.688Z,88.18
2022-12-10T06:01:56.689Z,88.32
2022-12-10T06:02:56.780Z,88.75
2022-12-10T06:03:56.656Z,88.96
2022-12-10T06:04:56.656Z,89.06
2022-12-10T06:05:56.626Z,89.27
2022-12-10T06:06:56.627Z,89.37
2022-12-10T06:07:56.639Z,89.48
2022-12-10T06:08:56.586Z,89.37
2022-12-10T06:09:56.576Z,89.17
2022-12-10T06:10:56.558Z,89.27
2022-12-10T06:11:56.559Z,89.27
2022-12-10T06:12:56.538Z,89.73
2022-12-10T06:13:56.863Z,89.94
2022-12-10T06:14:56.509Z,90.05
2022-12-10T06:15:56.570Z,90.05
2022-12-10T06:16:56.500Z,90.22
2022-12-10T06:17:56.471Z,90.00
2022-12-10T06:18:56.455Z,90.00
2022-12-10T06:19:56.497Z,89.79
2022-12-10T06:20:56.427Z,89.59
2022-12-10T06:21:56.438Z,89.48
2022-12-10T06:22:56.407Z,89.17
2022-12-10T06:23:56.396Z,89.48
2022-12-10T06:24:56.387Z,89.59
2022-12-10T06:25:56.367Z,89.59
2022-12-10T06:26:56.366Z,89.69
2022-12-10T06:27:56.340Z,89.90
2022-12-10T06:28:56.325Z,89.79
2022-12-10T06:29:56.317Z,89.69
2022-12-10T06:30:56.327Z,89.73
2022-12-10T06:31:56.287Z,89.84
2022-12-10T06:32:56.296Z,89.94
2022-12-10T06:33:56.266Z,89.84
2022-12-10T06:34:56.248Z,89.90
2022-12-10T06:35:56.246Z,89.79
2022-12-10T06:36:56.217Z,89.69
2022-12-10T06:37:56.234Z,89.69
2022-12-10T06:38:56.197Z,89.37
2022-12-10T06:39:56.186Z,89.17
2022-12-10T06:40:56.166Z,89.17
2022-12-10T06:41:58.961Z,89.06
2022-12-10T06:42:56.167Z,88.85
2022-12-10T06:43:56.134Z,88.75
2022-12-10T06:44:56.116Z,88.75
2022-12-10T06:45:56.112Z,88.75
2022-12-10T06:46:56.156Z,88.64
2022-12-10T06:47:56.119Z,88.75
2022-12-10T06:48:56.065Z,88.75
2022-12-10T06:49:56.054Z,88.54
2022-12-10T06:50:56.037Z,88.75
2022-12-10T06:51:56.025Z,88.85
2022-12-10T06:52:56.036Z,88.85
2022-12-10T06:53:56.008Z,89.06
2022-12-10T06:54:55.984Z,89.06
2022-12-10T06:55:55.983Z,88.85
2022-12-10T06:56:55.954Z,88.85
2022-12-10T06:57:56.122Z,88.54
2022-12-10T06:58:55.933Z,88.47
2022-12-10T06:59:55.942Z,88.57
2022-12-10T07:00:55.904Z,88.68
2022-12-10T07:01:55.993Z,88.79
2022-12-10T07:02:55.935Z,88.89
2022-12-10T07:03:55.878Z,89.10
2022-12-10T07:04:55.855Z,89.10
2022-12-10T07:05:55.853Z,89.10
2022-12-10T07:06:55.832Z,88.89
2022-12-10T07:07:55.862Z,88.93
2022-12-10T07:08:55.807Z,89.25
2022-12-10T07:09:55.802Z,89.50
2022-12-10T07:10:55.782Z,89.81
2022-12-10T07:11:55.774Z,90.12
2022-12-10T07:12:55.781Z,90.30
2022-12-10T07:13:55.755Z,90.09
2022-12-10T07:14:55.724Z,90.09
2022-12-10T07:15:55.755Z,89.92
2022-12-10T07:16:55.701Z,89.98
2022-12-10T07:17:55.712Z,89.92
2022-12-10T07:18:55.673Z,90.02
2022-12-10T07:19:55.670Z,90.19
2022-12-10T07:20:55.645Z,90.19
2022-12-10T07:21:55.632Z,89.87
2022-12-10T07:22:55.655Z,89.56
2022-12-10T07:23:55.612Z,89.67
2022-12-10T07:24:55.626Z,89.81
2022-12-10T07:25:55.589Z,90.02
2022-12-10T07:26:55.569Z,90.19
2022-12-10T07:27:57.884Z,90.30
2022-12-10T07:28:56.999Z,90.30
2022-12-10T07:29:55.542Z,90.09
2022-12-10T07:30:55.521Z,89.87
2022-12-10T07:31:55.510Z,89.73
2022-12-10T07:32:55.518Z,89.62
2022-12-10T07:33:55.484Z,89.42
2022-12-10T07:34:55.470Z,89.52
2022-12-10T07:35:55.462Z,89.62
2022-12-10T07:36:55.449Z,89.73
2022-12-10T07:37:55.447Z,89.73
2022-12-10T07:38:55.409Z,89.62
2022-12-10T07:39:55.407Z,89.62
2022-12-10T07:40:55.390Z,89.59
2022-12-10T07:41:55.385Z,89.69
2022-12-10T07:42:55.391Z,89.69
2022-12-10T07:43:55.358Z,89.59
2022-12-10T07:44:55.340Z,89.34
2022-12-10T07:45:55.429Z,89.12
2022-12-10T07:46:55.506Z,88.64
2022-12-10T07:47:55.333Z,88.32
2022-12-10T07:48:55.290Z,88.32
2022-12-10T07:49:55.280Z,88.43
2022-12-10T07:50:58.483Z,88.43
2022-12-10T07:51:55.257Z,88.43
2022-12-10T07:52:55.261Z,88.54
2022-12-10T07:53:55.245Z,88.60
2022-12-10T07:54:55.220Z,88.71
2022-12-10T07:55:55.206Z,88.71
2022-12-10T07:56:55.181Z,88.39
2022-12-10T07:57:55.197Z,88.18
2022-12-10T07:58:55.173Z,88.07
2022-12-10T07:59:55.160Z,88.29
2022-12-10T08:00:55.214Z,88.60
2022-12-10T08:01:55.119Z,88.92
2022-12-10T08:02:55.155Z,88.60
2022-12-10T08:03:55.099Z,88.29
2022-12-10T08:04:55.080Z,88.39
2022-12-10T08:05:55.068Z,88.49
2022-12-10T08:06:55.051Z,88.49
2022-12-10T08:08:01.141Z,88.60
2022-12-10T08:08:56.029Z,88.67
2022-12-10T08:09:55.018Z,88.67
2022-12-10T08:10:54.985Z,88.46
2022-12-10T08:11:54.985Z,88.21
2022-12-10T08:12:54.988Z,88.10
2022-12-10T08:13:57.219Z,87.99
2022-12-10T08:14:54.936Z,88.10
2022-12-10T08:15:54.977Z,88.10
2022-12-10T08:16:54.967Z,87.89
2022-12-10T08:17:54.916Z,87.37
2022-12-10T08:18:54.885Z,86.74
2022-12-10T08:19:54.895Z,86.53
2022-12-10T08:20:54.878Z,86.63
2022-12-10T08:21:54.867Z,86.91
2022-12-10T08:22:54.882Z,87.01
2022-12-10T08:23:54.847Z,86.80
2022-12-10T08:24:54.827Z,86.60
2022-12-10T08:25:54.820Z,86.70
2022-12-10T08:26:54.796Z,86.60
2022-12-10T08:27:54.806Z,86.60
2022-12-10T08:28:54.777Z,86.70
2022-12-10T08:29:54.756Z,86.66
2022-12-10T08:30:54.744Z,86.55
2022-12-10T08:31:54.843Z,86.14
2022-12-10T08:32:54.759Z,85.93
2022-12-10T08:33:54.715Z,86.04
2022-12-10T08:34:54.687Z,86.24
2022-12-10T08:35:54.685Z,86.55
2022-12-10T08:36:54.667Z,86.66
2022-12-10T08:37:54.676Z,86.77
2022-12-10T08:38:54.644Z,86.98
2022-12-10T08:39:54.635Z,86.87
2022-12-10T08:40:54.613Z,86.66
2022-12-10T08:41:54.607Z,86.35
2022-12-10T08:42:57.389Z,86.14
2022-12-10T08:43:54.582Z,86.04
2022-12-10T08:44:54.564Z,86.14
2022-12-10T08:45:54.596Z,86.24
2022-12-10T08:46:54.536Z,86.45
2022-12-10T08:47:54.545Z,86.55
2022-12-10T08:48:54.515Z,86.55
2022-12-10T08:49:54.505Z,86.55
2022-12-10T08:50:54.487Z,86.55
2022-12-10T08:51:54.475Z,86.52
2022-12-10T08:52:54.485Z,86.31
2022-12-10T08:53:54.456Z,86.14
2022-12-10T08:54:54.435Z,86.10
2022-12-10T08:55:54.429Z,86.24
2022-12-10T08:56:54.413Z,85.99
2022-12-10T08:57:54.416Z,86.04
2022-12-10T08:58:54.384Z,86.04
2022-12-10T08:59:54.384Z,85.93
2022-12-10T09:00:54.402Z,85.99
2022-12-10T09:01:56.660Z,85.99
2022-12-10T09:02:54.355Z,86.10
2022-12-10T09:03:54.334Z,86.10
2022-12-10T09:04:54.314Z,85.93
2022-12-10T09:05:54.304Z,85.82
2022-12-10T09:06:54.282Z,87.98
2022-12-10T09:07:54.351Z,86.93
2022-12-10T09:08:54.265Z,86.10
2022-12-10T09:09:54.251Z,85.89
2022-12-10T09:10:54.225Z,85.61
2022-12-10T09:11:54.224Z,85.41
2022-12-10T09:12:58.559Z,85.51
2022-12-10T09:13:55.193Z,85.61
2022-12-10T09:14:54.173Z,85.51
2022-12-10T09:15:54.173Z,85.61
2022-12-10T09:16:54.234Z,85.82
2022-12-10T09:17:54.173Z,86.04
2022-12-10T09:18:54.133Z,86.04
2022-12-10T09:19:54.143Z,85.93
2022-12-10T09:20:54.103Z,85.61
2022-12-10T09:21:54.094Z,87.98
2022-12-10T09:22:54.112Z,88.92
2022-12-10T09:23:54.072Z,87.15
2022-12-10T09:24:54.048Z,85.89
2022-12-10T09:25:54.031Z,85.26
2022-12-10T09:26:54.022Z,85.09
2022-12-10T09:27:54.010Z,84.99
2022-12-10T09:28:54.010Z,85.19
2022-12-10T09:29:53.980Z,85.51
2022-12-10T09:30:53.980Z,85.30
2022-12-10T09:31:53.993Z,84.25
2022-12-10T09:32:53.983Z,83.83
2022-12-10T09:33:53.952Z,83.73
2022-12-10T09:34:53.932Z,83.77
2022-12-10T09:35:53.924Z,84.08
2022-12-10T09:36:53.901Z,84.19
2022-12-10T09:37:53.882Z,84.46
2022-12-10T09:38:53.906Z,84.99
2022-12-10T09:39:53.860Z,85.19
2022-12-10T09:40:53.850Z,84.95
2022-12-10T09:41:53.833Z,84.74
2022-12-10T09:42:53.857Z,84.63
2022-12-10T09:43:53.907Z,84.63
2022-12-10T09:44:53.812Z,84.53
2022-12-10T09:45:53.808Z,84.28
2022-12-10T09:46:53.799Z,83.97
2022-12-10T09:47:53.760Z,84.07
2022-12-10T09:48:53.772Z,83.65
2022-12-10T09:49:53.731Z,82.92
2022-12-10T09:50:53.733Z,82.71
2022-12-10T09:51:53.709Z,82.40
2022-12-10T09:52:53.709Z,81.77
2022-12-10T09:53:53.701Z,81.67
2022-12-10T09:54:53.680Z,81.56
2022-12-10T09:55:53.660Z,81.73
2022-12-10T09:56:53.650Z,81.63
2022-12-10T09:57:53.630Z,81.42
2022-12-10T09:58:53.630Z,81.42
2022-12-10T09:59:53.599Z,81.52
2022-12-10T10:00:53.623Z,81.21
2022-12-10T10:01:53.636Z,81.42
2022-12-10T10:02:53.589Z,81.32
2022-12-10T10:03:53.570Z,81.11
2022-12-10T10:04:53.601Z,81.00
2022-12-10T10:05:54.998Z,80.79
2022-12-10T10:06:53.521Z,80.58
2022-12-10T10:07:53.529Z,80.79
2022-12-10T10:08:53.509Z,81.32
2022-12-10T10:09:53.481Z,81.95
2022-12-10T10:10:53.473Z,82.46
2022-12-10T10:11:53.459Z,82.46
2022-12-10T10:12:53.449Z,82.36
2022-12-10T10:13:53.439Z,82.57
2022-12-10T10:14:53.421Z,82.36
2022-12-10T10:15:53.401Z,81.67
2022-12-10T10:16:53.462Z,81.67
2022-12-10T10:17:53.379Z,81.77
2022-12-10T10:18:53.388Z,82.19
2022-12-10T10:19:53.349Z,82.50
2022-12-10T10:20:53.348Z,82.71
2022-12-10T10:21:53.327Z,82.71
2022-12-10T10:22:53.318Z,82.82
2022-12-10T10:23:53.302Z,82.92
2022-12-10T10:24:53.309Z,82.60
2022-12-10T10:25:53.278Z,82.40
2022-12-10T10:26:53.270Z,82.29
2022-12-10T10:27:53.262Z,82.36
2022-12-10T10:28:53.247Z,82.46
2022-12-10T10:29:57.787Z,82.36
2022-12-10T10:30:53.288Z,82.26
2022-12-10T10:31:53.198Z,82.36
2022-12-10T10:32:53.195Z,82.43
2022-12-10T10:33:53.182Z,82.43
2022-12-10T10:34:53.198Z,82.53
2022-12-10T10:35:53.149Z,82.74
2022-12-10T10:36:53.138Z,82.74
2022-12-10T10:37:53.133Z,82.81
2022-12-10T10:38:53.107Z,82.81
2022-12-10T10:39:53.108Z,82.60
2022-12-10T10:40:53.089Z,82.70
2022-12-10T10:41:57.866Z,82.50
2022-12-10T10:42:54.056Z,82.29
2022-12-10T10:43:53.038Z,82.29
2022-12-10T10:44:53.045Z,82.18
2022-12-10T10:45:53.069Z,81.87
2022-12-10T10:46:53.006Z,81.87
2022-12-10T10:47:52.988Z,82.39
2022-12-10T10:48:52.986Z,82.50
2022-12-10T10:49:52.994Z,82.81
2022-12-10T10:50:52.957Z,83.12
2022-12-10T10:51:52.946Z,83.12
2022-12-10T10:52:52.937Z,82.81
2022-12-10T10:53:52.943Z,82.46
2022-12-10T10:54:52.927Z,82.18
2022-12-10T10:55:52.913Z,81.83
2022-12-10T10:56:52.885Z,81.73
2022-12-10T10:57:52.856Z,81.83
2022-12-10T10:58:52.854Z,82.14
2022-12-10T10:59:52.864Z,82.25
2022-12-10T11:00:52.868Z,82.14
2022-12-10T11:01:52.823Z,81.83
2022-12-10T11:02:52.871Z,81.93
2022-12-10T11:03:52.836Z,82.04
2022-12-10T11:04:52.796Z,82.14
2022-12-10T11:05:52.756Z,82.04
2022-12-10T11:06:52.756Z,81.90
2022-12-10T11:07:52.753Z,81.79
2022-12-10T11:08:52.726Z,81.83
2022-12-10T11:09:52.736Z,81.83
2022-12-10T11:10:52.707Z,82.00
2022-12-10T11:11:53.055Z,82.21
2022-12-10T11:12:52.676Z,81.90
2022-12-10T11:13:52.657Z,81.69
2022-12-10T11:14:53.022Z,81.59
2022-12-10T11:15:52.655Z,81.48
2022-12-10T11:17:00.257Z,81.06
2022-12-10T11:17:52.626Z,80.96
2022-12-10T11:18:52.601Z,81.48
2022-12-10T11:19:52.590Z,82.28
2022-12-10T11:20:52.590Z,82.48
2022-12-10T11:21:52.559Z,81.90
2022-12-10T11:22:52.559Z,81.59
2022-12-10T11:23:52.550Z,81.79
2022-12-10T11:24:52.540Z,81.90
2022-12-10T11:25:52.520Z,81.59
2022-12-10T11:26:52.498Z,81.48
2022-12-10T11:27:52.479Z,82.00
2022-12-10T11:28:52.469Z,82.42
2022-12-10T11:29:52.460Z,82.21
2022-12-10T11:30:52.516Z,81.59
2022-12-10T11:31:52.439Z,81.38
2022-12-10T11:32:52.428Z,81.69
2022-12-10T11:33:52.419Z,82.00
2022-12-10T11:34:52.398Z,82.42
2022-12-10T11:35:52.378Z,82.53
2022-12-10T11:36:52.473Z,82.31
2022-12-10T11:37:52.388Z,82.31
2022-12-10T11:38:52.379Z,82.53
2022-12-10T11:39:52.437Z,82.73
2022-12-10T11:40:52.341Z,83.04
2022-12-10T11:41:52.338Z,83.22
2022-12-10T11:42:52.318Z,83.11
2022-12-10T11:43:52.280Z,82.80
2022-12-10T11:44:52.269Z,82.48
2022-12-10T11:45:52.318Z,82.70
2022-12-10T11:46:52.279Z,82.70
2022-12-10T11:47:52.240Z,82.17
2022-12-10T11:48:52.221Z,81.55
2022-12-10T11:49:52.197Z,81.34
2022-12-10T11:50:52.208Z,80.82
2022-12-10T11:51:52.189Z,80.82
2022-12-10T11:52:52.169Z,81.34
2022-12-10T11:53:52.147Z,81.65
2022-12-10T11:54:52.137Z,80.71
2022-12-10T11:55:52.118Z,80.51
2022-12-10T11:56:52.129Z,80.19
2022-12-10T11:57:52.095Z,80.71
2022-12-10T11:58:52.146Z,81.13
2022-12-10T12:00:07.172Z,80.92
2022-12-10T12:01:00.211Z,80.61
2022-12-10T12:01:53.057Z,80.09
2022-12-10T12:02:52.068Z,80.33
2022-12-10T12:03:52.064Z,80.44
2022-12-10T12:04:52.008Z,80.85
2022-12-10T12:05:52.000Z,81.23
2022-12-10T12:06:52.284Z,81.13
2022-12-10T12:07:52.006Z,81.13
2022-12-10T12:08:51.959Z,80.82
2022-12-10T12:09:51.952Z,80.33
2022-12-10T12:10:54.233Z,80.65
2022-12-10T12:11:51.930Z,80.96
2022-12-10T12:12:55.893Z,81.16
2022-12-10T12:13:51.887Z,80.75
2022-12-10T12:14:51.877Z,81.06
2022-12-10T12:15:51.878Z,81.48
2022-12-10T12:16:51.988Z,81.16
2022-12-10T12:17:51.854Z,80.54
2022-12-10T12:18:51.827Z,80.65
2022-12-10T12:19:51.813Z,80.99
2022-12-10T12:20:51.809Z,81.16
2022-12-10T12:21:51.795Z,80.47
2022-12-10T12:22:51.807Z,80.68
2022-12-10T12:23:51.765Z,81.21
2022-12-10T12:24:51.750Z,81.73
2022-12-10T12:25:51.743Z,81.45
2022-12-10T12:26:51.728Z,81.24
2022-12-10T12:27:51.727Z,81.35
2022-12-10T12:28:51.716Z,81.56
2022-12-10T12:29:51.687Z,82.07
2022-12-10T12:30:51.721Z,81.56
2022-12-10T12:31:51.663Z,81.56
2022-12-10T12:32:51.666Z,81.76
2022-12-10T12:33:51.653Z,82.07
2022-12-10T12:34:53.844Z,82.18
2022-12-10T12:35:52.636Z,82.29
2022-12-10T12:36:51.597Z,82.07
2022-12-10T12:37:51.595Z,82.39
2022-12-10T12:38:51.575Z,82.29
2022-12-10T12:39:51.567Z,81.93
2022-12-10T12:40:51.546Z,81.83
2022-12-10T12:41:51.551Z,81.73
2022-12-10T12:42:52.648Z,82.46
2022-12-10T12:43:51.524Z,81.62
2022-12-10T12:44:51.495Z,81.73
2022-12-10T12:45:51.495Z,81.31
2022-12-10T12:46:51.524Z,81.45
2022-12-10T12:47:52.170Z,81.87
2022-12-10T12:48:51.444Z,81.76
2022-12-10T12:49:51.432Z,81.07
2022-12-10T12:50:51.424Z,81.07
2022-12-10T12:51:51.482Z,80.76